Peotone Weather

Nearby METAR Reports

 

KIGQ - Lansing, Illinois, USA
Distance from station: NE 19mi, 30km
Updated: Thu, 23-Feb-2017 9:15pm CST
Overcast
Overcast
 Wind from NE
Wind: NE 8 mph , 13 km/h
Temperature: 39°F , 4°C
Wind Chill: 33°F , 1°C
Dew Point: 39°F , 4°C
Humidity: 100%
Barometer: 29.74 inHg , 1007.1 hPa
Clouds: Overcast
Visibility: 10 miles , 16 km
Cloud details: Overcast 600 ft
2017/02/24 03:15 KIGQ 240315Z AUTO 04007KT 10SM OVC006 04/04 A2974 RMK AO2 T00350035
KIKK - Kankakee, Illinois, USA
Distance from station: S 19mi, 30km
Updated: Thu, 23-Feb-2017 9:15pm CST
Mostly cloudy
Mostly cloudy
 Wind from NE
Wind: NE 9 mph , 15 km/h
Temperature: 39°F , 4°C
Wind Chill: 33°F , 1°C
Dew Point: 37°F , 3°C
Humidity: 93%
Barometer: 29.71 inHg , 1006.1 hPa
Clouds: Mostly cloudy
Visibility: 10 miles , 16 km
Cloud details: Mostly cloudy 600 ft
Mostly cloudy 3400 ft
2017/02/24 03:15 KIKK 240315Z AUTO 05008KT 10SM BKN006 BKN034 04/03 A2971 RMK AO2 T00430034
 
KSJC - Joliet, Illinois, USA
Distance from station: WNW 24mi, 38km
Updated: Thu, 23-Feb-2017 8:53pm CST
Few Clouds
Few Clouds
 Wind from WSW
Wind: WSW 10 mph , 17 km/h
Temperature: 48°F , 9°C
Wind Chill: 44°F , 7°C
Dew Point: 36°F , 2°C
Humidity: 62%
Barometer: 30.20 inHg , 1022.7 hPa
Clouds: Few Clouds
Visibility: 10 miles , 16 km
Cloud details: Few Clouds 1600 ft
Few Clouds 4500 ft
2017/02/24 02:53 KSJC 240253Z 25009KT 10SM FEW016 FEW045 09/02 A3020 RMK AO2 SLP226 T00890017 53003
KLOT - Romeoville, Illinois, USA
Distance from station: NW 26mi, 41km
Updated: Thu, 23-Feb-2017 9:15pm CST
Overcast
Overcast
 Wind from ENE
Wind: ENE 14 mph , 22 km/h
Temperature: 39°F , 4°C
Wind Chill: 31°F , -1°C
Dew Point: 39°F , 4°C
Humidity: 100%
Barometer: 29.71 inHg , 1006.1 hPa
Clouds: Overcast
Visibility: 10 miles , 16 km
Cloud details: Overcast 700 ft
2017/02/24 03:15 KLOT 240315Z AUTO 07012KT 10SM OVC007 04/04 A2971 RMK AO2 T00360036
 
KMDW - Midway Airport Chicago, Illinois, USA
Distance from station: N 31mi, 50km
Updated: Thu, 23-Feb-2017 8:53pm CST
Light rain, Overcast
Light rain, Overcast
 Wind from NNE
Wind: NNE 13 mph , 20 km/h
Temperature: 39°F , 4°C
Wind Chill: 31°F , -1°C
Dew Point: 36°F , 2°C
Humidity: 87%
Barometer: 29.73 inHg , 1006.8 hPa
Summary: Light rain
Clouds: Overcast
Visibility: 9 miles , 14 km
Cloud details: Mostly cloudy 800 ft
Mostly cloudy 1200 ft
Overcast 2700 ft
2017/02/24 02:53 KMDW 240253Z 03011KT 9SM -RA BKN008 BKN012 OVC027 04/02 A2973 RMK AO2 RAE28B47 SLP073 P0003 60012 T00440022 56016
KC09 - Morris, Illinois, USA
Distance from station: W 34mi, 54km
Updated: Thu, 23-Feb-2017 9:15pm CST
Overcast
Overcast
 Wind from ENE
Wind: ENE 7 mph , 11 km/h
Temperature: 39°F , 4°C
Wind Chill: 34°F , 1°C
Dew Point: 37°F , 3°C
Humidity: 93%
Barometer: 29.71 inHg , 1006.1 hPa
Clouds: Overcast
Visibility: 10 miles , 16 km
Cloud details: Overcast 800 ft
2017/02/24 03:15 KC09 240315Z AUTO 06006KT 10SM OVC008 04/03 A2971 RMK AO2 T00410030

Metar display script from Saratoga-Weather.org